This is the latest recevied weather packets stored in our database for station/object AI4Y. If no packets are shown the sender has not sent any weather packets the latest 10 day(s).
| Time | Temp. | Humidity | Pressure | Rain* | Wind** | Luminosity | Snow |
|---|---|---|---|---|---|---|---|
| 1778223017 | 6.11° C | 93% | 1014.9 hPa | 0 mm | - | 0 W/m² | - |
| 1778221817 | 6.67° C | 92% | 1014.9 hPa | 0 mm | - | 0 W/m² | - |
| 1778220017 | 6.67° C | 96% | 1014.9 hPa | 0 mm | - | 0 W/m² | - |
| 1778218838 | 6.67° C | 97% | 1014.7 hPa | 0 mm | - | 0 W/m² | - |
| 1778217015 | 7.22° C | 96% | 1014.3 hPa | 0 mm | - | 0 W/m² | - |
| 1778214016 | 8.33° C | 89% | 1014 hPa | 0 mm | - | 0 W/m² | - |
| 1778208018 | 9.44° C | 99% | 1013.3 hPa | 0 mm | - | 0 W/m² | - |
| 1778206817 | 9.44° C | 99% | 1013.1 hPa | 0 mm | - | 0 W/m² | - |
| 1778199616 | 12.78° C | 94% | 1011.9 hPa | 0 mm | - | 3 W/m² | - |
| 1778196617 | 15.56° C | 87% | 1011.3 hPa | 0 mm | - | 92 W/m² | - |
| 1778191818 | 17.22° C | 84% | 1010.3 hPa | 0 mm | - | 435 W/m² | - |
| 1778184617 | 13.89° C | 97% | 1010.2 hPa | 0 mm | - | 675 W/m² | - |
| 1778178624 | 13.89° C | 98% | 1011.5 hPa | 0.25 mm | - | 129 W/m² | - |
| 1778178024 | 13.89° C | 98% | 1011.5 hPa | 0.25 mm | - | 114 W/m² | - |
| 1778173237 | 15° C | 93% | 1011.4 hPa | 0 mm | - | 50 W/m² | - |
| 1778171417 | 15.56° C | 90% | 1011.3 hPa | 0 mm | - | 68 W/m² | - |
| 1778170218 | 15.56° C | 90% | 1011.3 hPa | 0 mm | - | 208 W/m² | - |
| 1778168418 | 15.56° C | 88% | 1011.7 hPa | 0 mm | - | 104 W/m² | - |
| 1778167239 | 15.56° C | 87% | 1011.7 hPa | 0 mm | - | 189 W/m² | - |
| 1778166016 | 15.56° C | 87% | 1011.6 hPa | 0 mm | - | 71 W/m² | - |
| 1778162420 | 15.56° C | 88% | 1011.1 hPa | 0 mm | - | 151 W/m² | - |
| 1778160017 | 16.11° C | 86% | 1011.5 hPa | 0 mm | - | 167 W/m² | - |
| 1778159417 | 15.56° C | 87% | 1011.7 hPa | 0 mm | - | 140 W/m² | - |
| 1778158837 | 15.56° C | 88% | 1011.7 hPa | 0 mm | - | 59 W/m² | - |
| 1778157018 | 15° C | 89% | 1011.9 hPa | 0 mm | - | 32 W/m² | - |
* Rain latest hour (hover to see other rain measurements)
** Current wind speed in m/s (hover to see current wind gust speed)